sensor_id;sensor_type;location;lat;lon;timestamp;P1;durP1;ratioP1;P2;durP2;ratioP2
47856;SDS011;33618;49.972;8.242;2022-10-16T00:01:42;1.25;;;1.10;;
47856;SDS011;33618;49.972;8.242;2022-10-16T00:04:09;2.38;;;1.17;;
47856;SDS011;33618;49.972;8.242;2022-10-16T00:06:36;1.92;;;1.20;;
47856;SDS011;33618;49.972;8.242;2022-10-16T00:09:04;2.50;;;1.23;;
47856;SDS011;33618;49.972;8.242;2022-10-16T00:11:32;1.20;;;1.20;;
47856;SDS011;33618;49.972;8.242;2022-10-16T00:14:03;1.63;;;1.20;;
47856;SDS011;33618;49.972;8.242;2022-10-16T00:16:33;2.60;;;1.40;;
47856;SDS011;33618;49.972;8.242;2022-10-16T00:19:00;1.60;;;1.50;;
47856;SDS011;33618;49.972;8.242;2022-10-16T00:21:28;2.95;;;1.27;;
47856;SDS011;33618;49.972;8.242;2022-10-16T01:17:04;2.75;;;1.60;;
47856;SDS011;33618;49.972;8.242;2022-10-16T01:19:44;2.03;;;1.83;;
47856;SDS011;33618;49.972;8.242;2022-10-16T01:22:21;3.92;;;2.10;;
47856;SDS011;33618;49.972;8.242;2022-10-16T01:24:55;2.00;;;1.80;;
47856;SDS011;33618;49.972;8.242;2022-10-16T01:27:30;2.65;;;1.98;;
47856;SDS011;33618;49.972;8.242;2022-10-16T01:30:02;2.25;;;2.05;;
47856;SDS011;33618;49.972;8.242;2022-10-16T01:32:39;3.15;;;1.90;;
47856;SDS011;33618;49.972;8.242;2022-10-16T01:35:27;3.40;;;2.10;;
47856;SDS011;33618;49.972;8.242;2022-10-16T01:38:00;2.90;;;2.05;;
47856;SDS011;33618;49.972;8.242;2022-10-16T01:40:29;2.67;;;2.38;;
47856;SDS011;33618;49.972;8.242;2022-10-16T01:43:20;2.30;;;2.20;;
47856;SDS011;33618;49.972;8.242;2022-10-16T01:45:47;2.97;;;2.40;;
47856;SDS011;33618;49.972;8.242;2022-10-16T01:48:17;5.53;;;2.70;;
47856;SDS011;33618;49.972;8.242;2022-10-16T01:50:49;2.40;;;2.20;;
47856;SDS011;33618;49.972;8.242;2022-10-16T01:53:24;3.15;;;2.72;;
47856;SDS011;33618;49.972;8.242;2022-10-16T01:55:52;2.60;;;2.38;;
47856;SDS011;33618;49.972;8.242;2022-10-16T01:58:21;2.70;;;2.50;;
47856;SDS011;33618;49.972;8.242;2022-10-16T02:00:50;3.20;;;2.20;;
47856;SDS011;33618;49.972;8.242;2022-10-16T02:03:21;2.47;;;2.28;;
47856;SDS011;33618;49.972;8.242;2022-10-16T02:05:50;2.50;;;2.30;;
47856;SDS011;33618;49.972;8.242;2022-10-16T02:08:20;5.85;;;2.63;;
47856;SDS011;33618;49.972;8.242;2022-10-16T02:10:50;3.75;;;2.78;;
47856;SDS011;33618;49.972;8.242;2022-10-16T02:13:21;2.95;;;2.30;;
47856;SDS011;33618;49.972;8.242;2022-10-16T02:16:04;2.63;;;2.42;;
47856;SDS011;33618;49.972;8.242;2022-10-16T02:18:31;2.80;;;2.60;;
47856;SDS011;33618;49.972;8.242;2022-10-16T02:21:01;2.95;;;2.70;;
47856;SDS011;33618;49.972;8.242;2022-10-16T02:26:35;2.70;;;2.50;;
47856;SDS011;33618;49.972;8.242;2022-10-16T02:29:14;3.22;;;2.30;;
47856;SDS011;33618;49.972;8.242;2022-10-16T02:31:46;3.45;;;2.60;;
47856;SDS011;33618;49.972;8.242;2022-10-16T02:34:18;3.03;;;2.65;;
47856;SDS011;33618;49.972;8.242;2022-10-16T02:36:48;3.10;;;2.58;;
47856;SDS011;33618;49.972;8.242;2022-10-16T02:39:16;2.70;;;2.50;;
47856;SDS011;33618;49.972;8.242;2022-10-16T02:41:44;4.38;;;2.60;;
47856;SDS011;33618;49.972;8.242;2022-10-16T02:44:12;4.45;;;2.88;;
47856;SDS011;33618;49.972;8.242;2022-10-16T02:46:39;2.90;;;2.70;;
47856;SDS011;33618;49.972;8.242;2022-10-16T02:49:06;4.78;;;2.78;;
47856;SDS011;33618;49.972;8.242;2022-10-16T02:51:33;3.20;;;2.90;;
47856;SDS011;33618;49.972;8.242;2022-10-16T02:54:00;4.13;;;2.95;;
47856;SDS011;33618;49.972;8.242;2022-10-16T02:56:27;3.30;;;3.00;;
47856;SDS011;33618;49.972;8.242;2022-10-16T02:58:56;3.20;;;3.00;;
47856;SDS011;33618;49.972;8.242;2022-10-16T03:01:23;4.85;;;3.00;;
47856;SDS011;33618;49.972;8.242;2022-10-16T03:03:51;5.45;;;3.10;;
47856;SDS011;33618;49.972;8.242;2022-10-16T03:06:18;3.55;;;2.90;;
47856;SDS011;33618;49.972;8.242;2022-10-16T03:08:45;3.90;;;3.05;;
47856;SDS011;33618;49.972;8.242;2022-10-16T03:11:12;5.28;;;3.40;;
47856;SDS011;33618;49.972;8.242;2022-10-16T03:13:39;3.67;;;3.10;;
47856;SDS011;33618;49.972;8.242;2022-10-16T03:16:06;3.47;;;3.17;;
47856;SDS011;33618;49.972;8.242;2022-10-16T03:18:33;5.00;;;3.30;;
47856;SDS011;33618;49.972;8.242;2022-10-16T03:21:01;3.42;;;2.78;;
47856;SDS011;33618;49.972;8.242;2022-10-16T03:23:29;3.45;;;3.17;;
47856;SDS011;33618;49.972;8.242;2022-10-16T03:26:01;3.10;;;2.80;;
47856;SDS011;33618;49.972;8.242;2022-10-16T03:28:28;3.60;;;3.30;;
47856;SDS011;33618;49.972;8.242;2022-10-16T03:30:56;3.35;;;3.05;;
47856;SDS011;33618;49.972;8.242;2022-10-16T03:33:23;3.95;;;3.20;;
47856;SDS011;33618;49.972;8.242;2022-10-16T03:35:53;3.25;;;2.90;;
47856;SDS011;33618;49.972;8.242;2022-10-16T03:38:21;4.05;;;2.80;;
47856;SDS011;33618;49.972;8.242;2022-10-16T03:40:49;3.00;;;2.70;;
47856;SDS011;33618;49.972;8.242;2022-10-16T03:43:16;3.20;;;3.00;;
47856;SDS011;33618;49.972;8.242;2022-10-16T03:45:43;3.53;;;3.20;;
47856;SDS011;33618;49.972;8.242;2022-10-16T03:48:10;3.13;;;2.80;;
47856;SDS011;33618;49.972;8.242;2022-10-16T03:50:37;4.72;;;2.85;;
47856;SDS011;33618;49.972;8.242;2022-10-16T03:53:04;2.80;;;2.60;;
47856;SDS011;33618;49.972;8.242;2022-10-16T03:55:31;4.20;;;3.10;;
47856;SDS011;33618;49.972;8.242;2022-10-16T03:57:59;3.22;;;3.00;;
47856;SDS011;33618;49.972;8.242;2022-10-16T04:00:26;4.65;;;3.22;;
47856;SDS011;33618;49.972;8.242;2022-10-16T04:02:53;3.35;;;3.05;;
47856;SDS011;33618;49.972;8.242;2022-10-16T04:05:20;6.18;;;2.90;;
47856;SDS011;33618;49.972;8.242;2022-10-16T04:07:47;5.88;;;3.10;;
47856;SDS011;33618;49.972;8.242;2022-10-16T04:10:14;2.95;;;2.75;;
47856;SDS011;33618;49.972;8.242;2022-10-16T04:12:42;3.13;;;2.83;;
47856;SDS011;33618;49.972;8.242;2022-10-16T04:15:09;3.45;;;3.00;;
47856;SDS011;33618;49.972;8.242;2022-10-16T04:17:36;3.30;;;3.00;;
47856;SDS011;33618;49.972;8.242;2022-10-16T04:20:04;2.90;;;2.40;;
47856;SDS011;33618;49.972;8.242;2022-10-16T04:22:31;3.22;;;2.55;;
47856;SDS011;33618;49.972;8.242;2022-10-16T04:24:58;5.78;;;2.40;;
47856;SDS011;33618;49.972;8.242;2022-10-16T04:27:25;2.10;;;2.00;;
47856;SDS011;33618;49.972;8.242;2022-10-16T04:29:53;2.95;;;2.10;;
47856;SDS011;33618;49.972;8.242;2022-10-16T04:32:20;3.17;;;2.17;;
47856;SDS011;33618;49.972;8.242;2022-10-16T04:34:47;2.30;;;2.20;;
47856;SDS011;33618;49.972;8.242;2022-10-16T04:37:14;2.55;;;2.35;;
47856;SDS011;33618;49.972;8.242;2022-10-16T04:39:41;2.80;;;2.38;;
47856;SDS011;33618;49.972;8.242;2022-10-16T04:42:08;4.75;;;2.00;;
47856;SDS011;33618;49.972;8.242;2022-10-16T04:44:35;2.10;;;2.00;;
47856;SDS011;33618;49.972;8.242;2022-10-16T04:47:02;2.95;;;1.98;;
47856;SDS011;33618;49.972;8.242;2022-10-16T04:49:31;2.50;;;1.70;;
47856;SDS011;33618;49.972;8.242;2022-10-16T04:51:58;3.42;;;2.00;;
47856;SDS011;33618;49.972;8.242;2022-10-16T04:54:24;4.18;;;2.35;;
47856;SDS011;33618;49.972;8.242;2022-10-16T04:56:51;3.30;;;1.95;;
47856;SDS011;33618;49.972;8.242;2022-10-16T04:59:19;2.15;;;2.05;;
47856;SDS011;33618;49.972;8.242;2022-10-16T05:01:47;2.08;;;1.88;;
47856;SDS011;33618;49.972;8.242;2022-10-16T05:04:14;3.38;;;2.00;;
47856;SDS011;33618;49.972;8.242;2022-10-16T05:06:41;2.78;;;2.10;;
47856;SDS011;33618;49.972;8.242;2022-10-16T05:09:09;3.03;;;2.47;;
47856;SDS011;33618;49.972;8.242;2022-10-16T05:11:36;3.42;;;1.85;;
47856;SDS011;33618;49.972;8.242;2022-10-16T05:14:03;2.90;;;2.00;;
47856;SDS011;33618;49.972;8.242;2022-10-16T05:16:30;2.22;;;2.03;;
47856;SDS011;33618;49.972;8.242;2022-10-16T05:18:58;2.30;;;2.00;;
47856;SDS011;33618;49.972;8.242;2022-10-16T05:24:11;2.38;;;1.85;;
47856;SDS011;33618;49.972;8.242;2022-10-16T05:26:38;1.90;;;1.73;;
47856;SDS011;33618;49.972;8.242;2022-10-16T05:29:05;3.78;;;2.22;;
47856;SDS011;33618;49.972;8.242;2022-10-16T05:31:32;2.63;;;2.10;;
47856;SDS011;33618;49.972;8.242;2022-10-16T05:33:59;5.00;;;2.10;;
47856;SDS011;33618;49.972;8.242;2022-10-16T05:36:28;2.20;;;2.00;;
47856;SDS011;33618;49.972;8.242;2022-10-16T05:38:55;2.95;;;2.08;;
47856;SDS011;33618;49.972;8.242;2022-10-16T05:41:22;2.30;;;2.10;;
47856;SDS011;33618;49.972;8.242;2022-10-16T05:43:52;2.13;;;2.00;;
47856;SDS011;33618;49.972;8.242;2022-10-16T05:46:19;2.58;;;2.38;;
47856;SDS011;33618;49.972;8.242;2022-10-16T05:48:46;2.50;;;2.30;;
47856;SDS011;33618;49.972;8.242;2022-10-16T05:51:14;2.80;;;2.60;;
47856;SDS011;33618;49.972;8.242;2022-10-16T05:53:41;2.70;;;2.50;;
47856;SDS011;33618;49.972;8.242;2022-10-16T05:56:10;2.70;;;2.50;;
47856;SDS011;33618;49.972;8.242;2022-10-16T05:58:39;2.83;;;2.63;;
47856;SDS011;33618;49.972;8.242;2022-10-16T06:01:14;5.25;;;3.15;;
47856;SDS011;33618;49.972;8.242;2022-10-16T06:03:43;4.22;;;2.50;;
47856;SDS011;33618;49.972;8.242;2022-10-16T06:06:21;3.35;;;2.90;;
47856;SDS011;33618;49.972;8.242;2022-10-16T06:09:43;4.38;;;3.10;;
47856;SDS011;33618;49.972;8.242;2022-10-16T06:12:10;3.60;;;3.30;;
47856;SDS011;33618;49.972;8.242;2022-10-16T06:14:37;3.10;;;2.90;;
47856;SDS011;33618;49.972;8.242;2022-10-16T06:17:04;2.95;;;2.75;;
47856;SDS011;33618;49.972;8.242;2022-10-16T06:19:31;3.08;;;2.88;;
47856;SDS011;33618;49.972;8.242;2022-10-16T06:21:58;2.80;;;2.60;;
47856;SDS011;33618;49.972;8.242;2022-10-16T06:24:26;2.85;;;2.65;;
47856;SDS011;33618;49.972;8.242;2022-10-16T06:26:53;2.55;;;2.35;;
47856;SDS011;33618;49.972;8.242;2022-10-16T06:32:11;5.60;;;2.75;;
47856;SDS011;33618;49.972;8.242;2022-10-16T06:34:38;3.08;;;2.60;;
47856;SDS011;33618;49.972;8.242;2022-10-16T06:37:09;2.75;;;2.55;;
47856;SDS011;33618;49.972;8.242;2022-10-16T06:39:36;2.75;;;2.38;;
47856;SDS011;33618;49.972;8.242;2022-10-16T06:42:03;4.25;;;2.72;;
47856;SDS011;33618;49.972;8.242;2022-10-16T06:44:30;2.58;;;2.38;;
47856;SDS011;33618;49.972;8.242;2022-10-16T06:46:57;2.95;;;2.63;;
47856;SDS011;33618;49.972;8.242;2022-10-16T06:49:24;3.92;;;2.63;;
47856;SDS011;33618;49.972;8.242;2022-10-16T06:51:51;4.15;;;2.70;;
47856;SDS011;33618;49.972;8.242;2022-10-16T06:54:17;3.10;;;2.50;;
47856;SDS011;33618;49.972;8.242;2022-10-16T06:56:44;3.42;;;2.80;;
47856;SDS011;33618;49.972;8.242;2022-10-16T06:59:11;3.30;;;2.70;;
47856;SDS011;33618;49.972;8.242;2022-10-16T07:01:38;5.60;;;2.50;;
47856;SDS011;33618;49.972;8.242;2022-10-16T07:04:05;3.22;;;2.60;;
47856;SDS011;33618;49.972;8.242;2022-10-16T07:06:32;3.00;;;2.75;;
47856;SDS011;33618;49.972;8.242;2022-10-16T07:09:01;3.17;;;2.75;;
47856;SDS011;33618;49.972;8.242;2022-10-16T07:11:32;4.30;;;3.30;;
47856;SDS011;33618;49.972;8.242;2022-10-16T07:13:59;3.10;;;2.90;;
47856;SDS011;33618;49.972;8.242;2022-10-16T07:16:27;3.30;;;3.00;;
47856;SDS011;33618;49.972;8.242;2022-10-16T07:18:57;3.30;;;3.00;;
47856;SDS011;33618;49.972;8.242;2022-10-16T07:21:27;7.10;;;3.00;;
47856;SDS011;33618;49.972;8.242;2022-10-16T07:24:03;3.60;;;2.73;;
47856;SDS011;33618;49.972;8.242;2022-10-16T07:26:32;3.55;;;3.20;;
47856;SDS011;33618;49.972;8.242;2022-10-16T07:29:01;5.20;;;3.08;;
47856;SDS011;33618;49.972;8.242;2022-10-16T07:31:30;3.35;;;3.05;;
47856;SDS011;33618;49.972;8.242;2022-10-16T07:33:58;3.10;;;2.80;;
47856;SDS011;33618;49.972;8.242;2022-10-16T07:36:26;3.22;;;2.92;;
47856;SDS011;33618;49.972;8.242;2022-10-16T07:38:53;4.13;;;3.10;;
47856;SDS011;33618;49.972;8.242;2022-10-16T07:41:27;3.30;;;3.10;;
47856;SDS011;33618;49.972;8.242;2022-10-16T07:43:54;3.50;;;3.20;;
47856;SDS011;33618;49.972;8.242;2022-10-16T07:46:22;3.97;;;3.67;;
47856;SDS011;33618;49.972;8.242;2022-10-16T07:48:50;4.93;;;3.75;;
47856;SDS011;33618;49.972;8.242;2022-10-16T07:51:18;4.75;;;4.25;;
47856;SDS011;33618;49.972;8.242;2022-10-16T07:53:47;3.90;;;3.60;;
47856;SDS011;33618;49.972;8.242;2022-10-16T07:56:15;4.32;;;3.90;;
47856;SDS011;33618;49.972;8.242;2022-10-16T07:58:43;4.35;;;3.70;;
47856;SDS011;33618;49.972;8.242;2022-10-16T08:01:14;3.78;;;3.40;;
47856;SDS011;33618;49.972;8.242;2022-10-16T08:03:46;4.10;;;3.50;;
47856;SDS011;33618;49.972;8.242;2022-10-16T08:06:15;4.45;;;3.45;;
47856;SDS011;33618;49.972;8.242;2022-10-16T08:08:47;3.92;;;3.63;;
47856;SDS011;33618;49.972;8.242;2022-10-16T08:11:14;4.47;;;3.20;;
47856;SDS011;33618;49.972;8.242;2022-10-16T08:13:41;4.65;;;3.60;;
47856;SDS011;33618;49.972;8.242;2022-10-16T08:16:08;5.72;;;3.58;;
47856;SDS011;33618;49.972;8.242;2022-10-16T08:18:36;7.90;;;5.07;;
47856;SDS011;33618;49.972;8.242;2022-10-16T08:21:07;5.75;;;4.60;;
47856;SDS011;33618;49.972;8.242;2022-10-16T08:23:46;8.40;;;3.95;;
47856;SDS011;33618;49.972;8.242;2022-10-16T08:26:25;4.00;;;3.70;;
47856;SDS011;33618;49.972;8.242;2022-10-16T08:28:53;4.68;;;4.28;;
47856;SDS011;33618;49.972;8.242;2022-10-16T08:31:22;4.82;;;4.05;;
47856;SDS011;33618;49.972;8.242;2022-10-16T08:33:50;4.47;;;4.00;;
47856;SDS011;33618;49.972;8.242;2022-10-16T08:36:18;6.32;;;3.70;;
47856;SDS011;33618;49.972;8.242;2022-10-16T08:38:49;4.35;;;3.70;;
47856;SDS011;33618;49.972;8.242;2022-10-16T08:41:21;3.42;;;3.22;;
47856;SDS011;33618;49.972;8.242;2022-10-16T08:49:20;4.88;;;3.13;;
47856;SDS011;33618;49.972;8.242;2022-10-16T08:51:47;3.50;;;3.13;;
47856;SDS011;33618;49.972;8.242;2022-10-16T08:54:21;4.30;;;3.17;;
47856;SDS011;33618;49.972;8.242;2022-10-16T08:57:07;4.43;;;4.03;;
47856;SDS011;33618;49.972;8.242;2022-10-16T08:59:45;8.32;;;3.97;;
47856;SDS011;33618;49.972;8.242;2022-10-16T09:02:33;4.50;;;4.10;;
47856;SDS011;33618;49.972;8.242;2022-10-16T09:08:10;3.83;;;3.47;;
47856;SDS011;33618;49.972;8.242;2022-10-16T09:13:28;5.78;;;4.10;;
47856;SDS011;33618;49.972;8.242;2022-10-16T09:25:13;6.82;;;4.78;;
47856;SDS011;33618;49.972;8.242;2022-10-16T09:27:45;5.38;;;4.75;;
47856;SDS011;33618;49.972;8.242;2022-10-16T09:30:19;6.13;;;4.22;;
47856;SDS011;33618;49.972;8.242;2022-10-16T09:33:01;7.47;;;3.88;;
47856;SDS011;33618;49.972;8.242;2022-10-16T09:35:39;4.47;;;3.33;;
47856;SDS011;33618;49.972;8.242;2022-10-16T09:38:08;3.70;;;3.40;;
47856;SDS011;33618;49.972;8.242;2022-10-16T09:43:55;6.47;;;3.20;;
47856;SDS011;33618;49.972;8.242;2022-10-16T09:46:29;5.65;;;3.72;;
47856;SDS011;33618;49.972;8.242;2022-10-16T09:49:22;5.78;;;3.58;;
47856;SDS011;33618;49.972;8.242;2022-10-16T09:51:51;5.13;;;3.45;;
47856;SDS011;33618;49.972;8.242;2022-10-16T09:54:29;4.70;;;3.20;;
47856;SDS011;33618;49.972;8.242;2022-10-16T09:57:06;4.22;;;3.20;;
47856;SDS011;33618;49.972;8.242;2022-10-16T09:59:45;5.88;;;3.10;;
47856;SDS011;33618;49.972;8.242;2022-10-16T10:02:16;5.57;;;3.35;;
47856;SDS011;33618;49.972;8.242;2022-10-16T10:04:55;4.20;;;2.97;;
47856;SDS011;33618;49.972;8.242;2022-10-16T10:07:24;3.05;;;2.85;;
47856;SDS011;33618;49.972;8.242;2022-10-16T10:10:18;4.07;;;2.83;;
47856;SDS011;33618;49.972;8.242;2022-10-16T10:12:47;3.25;;;2.60;;
47856;SDS011;33618;49.972;8.242;2022-10-16T10:15:15;4.45;;;2.40;;
47856;SDS011;33618;49.972;8.242;2022-10-16T10:18:02;3.83;;;2.78;;
47856;SDS011;33618;49.972;8.242;2022-10-16T10:20:42;2.67;;;2.47;;
47856;SDS011;33618;49.972;8.242;2022-10-16T10:23:22;4.13;;;2.70;;
47856;SDS011;33618;49.972;8.242;2022-10-16T10:25:58;4.32;;;2.63;;
47856;SDS011;33618;49.972;8.242;2022-10-16T10:40:12;3.78;;;2.13;;
47856;SDS011;33618;49.972;8.242;2022-10-16T10:42:57;2.28;;;2.08;;
47856;SDS011;33618;49.972;8.242;2022-10-16T10:45:47;2.60;;;2.40;;
47856;SDS011;33618;49.972;8.242;2022-10-16T10:51:10;4.18;;;2.28;;
47856;SDS011;33618;49.972;8.242;2022-10-16T10:56:20;1.50;;;1.40;;
47856;SDS011;33618;49.972;8.242;2022-10-16T11:01:56;2.08;;;1.30;;
47856;SDS011;33618;49.972;8.242;2022-10-16T11:07:32;1.30;;;1.20;;
47856;SDS011;33618;49.972;8.242;2022-10-16T11:10:12;1.65;;;1.30;;
47856;SDS011;33618;49.972;8.242;2022-10-16T11:12:59;2.13;;;1.10;;
47856;SDS011;33618;49.972;8.242;2022-10-16T11:15:59;1.27;;;1.10;;
47856;SDS011;33618;49.972;8.242;2022-10-16T11:21:43;2.10;;;1.40;;
47856;SDS011;33618;49.972;8.242;2022-10-16T11:24:35;2.15;;;1.80;;
47856;SDS011;33618;49.972;8.242;2022-10-16T11:30:24;2.10;;;1.75;;
47856;SDS011;33618;49.972;8.242;2022-10-16T11:35:55;2.00;;;1.80;;
47856;SDS011;33618;49.972;8.242;2022-10-16T11:38:38;2.58;;;1.73;;
47856;SDS011;33618;49.972;8.242;2022-10-16T11:46:36;1.95;;;1.85;;
47856;SDS011;33618;49.972;8.242;2022-10-16T11:49:26;2.05;;;1.77;;
47856;SDS011;33618;49.972;8.242;2022-10-16T11:57:22;2.03;;;1.40;;
47856;SDS011;33618;49.972;8.242;2022-10-16T11:59:59;2.63;;;1.50;;
47856;SDS011;33618;49.972;8.242;2022-10-16T12:02:40;3.10;;;1.73;;
47856;SDS011;33618;49.972;8.242;2022-10-16T12:08:17;3.10;;;1.60;;
47856;SDS011;33618;49.972;8.242;2022-10-16T12:10:45;1.20;;;1.20;;
47856;SDS011;33618;49.972;8.242;2022-10-16T12:16:19;1.92;;;1.10;;
47856;SDS011;33618;49.972;8.242;2022-10-16T12:18:48;4.10;;;1.10;;
47856;SDS011;33618;49.972;8.242;2022-10-16T12:21:16;1.38;;;1.27;;
47856;SDS011;33618;49.972;8.242;2022-10-16T12:23:52;1.88;;;1.40;;
47856;SDS011;33618;49.972;8.242;2022-10-16T12:40:29;1.65;;;1.15;;
47856;SDS011;33618;49.972;8.242;2022-10-16T12:42:59;1.75;;;1.15;;
47856;SDS011;33618;49.972;8.242;2022-10-16T12:45:37;2.25;;;1.20;;
47856;SDS011;33618;49.972;8.242;2022-10-16T12:48:04;1.10;;;1.00;;
47856;SDS011;33618;49.972;8.242;2022-10-16T12:50:46;2.25;;;1.20;;
47856;SDS011;33618;49.972;8.242;2022-10-16T12:53:19;1.40;;;1.30;;
47856;SDS011;33618;49.972;8.242;2022-10-16T12:59:06;1.40;;;1.30;;
47856;SDS011;33618;49.972;8.242;2022-10-16T13:01:39;1.40;;;1.30;;
47856;SDS011;33618;49.972;8.242;2022-10-16T13:04:27;2.75;;;1.23;;
47856;SDS011;33618;49.972;8.242;2022-10-16T13:16:25;1.23;;;1.20;;
47856;SDS011;33618;49.972;8.242;2022-10-16T13:22:11;2.35;;;1.30;;
47856;SDS011;33618;49.972;8.242;2022-10-16T13:28:00;1.50;;;1.23;;
47856;SDS011;33618;49.972;8.242;2022-10-16T13:30:28;1.58;;;1.48;;
47856;SDS011;33618;49.972;8.242;2022-10-16T13:35:59;3.22;;;1.50;;
47856;SDS011;33618;49.972;8.242;2022-10-16T13:38:31;1.30;;;1.10;;
47856;SDS011;33618;49.972;8.242;2022-10-16T13:41:04;1.98;;;1.33;;
47856;SDS011;33618;49.972;8.242;2022-10-16T13:43:50;1.70;;;1.60;;
47856;SDS011;33618;49.972;8.242;2022-10-16T13:46:21;1.83;;;1.40;;
47856;SDS011;33618;49.972;8.242;2022-10-16T13:49:03;2.25;;;1.50;;
47856;SDS011;33618;49.972;8.242;2022-10-16T13:51:31;3.53;;;1.50;;
47856;SDS011;33618;49.972;8.242;2022-10-16T13:53:59;2.33;;;1.42;;
47856;SDS011;33618;49.972;8.242;2022-10-16T13:56:27;3.10;;;1.50;;
47856;SDS011;33618;49.972;8.242;2022-10-16T13:59:22;3.70;;;1.55;;
47856;SDS011;33618;49.972;8.242;2022-10-16T14:01:58;1.88;;;1.70;;
47856;SDS011;33618;49.972;8.242;2022-10-16T14:04:28;1.98;;;1.50;;
47856;SDS011;33618;49.972;8.242;2022-10-16T14:06:58;1.80;;;1.70;;
47856;SDS011;33618;49.972;8.242;2022-10-16T14:09:26;1.88;;;1.77;;
47856;SDS011;33618;49.972;8.242;2022-10-16T14:11:55;2.65;;;1.63;;
47856;SDS011;33618;49.972;8.242;2022-10-16T14:14:32;1.60;;;1.50;;
47856;SDS011;33618;49.972;8.242;2022-10-16T14:17:05;1.85;;;1.75;;
47856;SDS011;33618;49.972;8.242;2022-10-16T14:19:39;3.72;;;1.65;;
47856;SDS011;33618;49.972;8.242;2022-10-16T14:22:18;1.73;;;1.63;;
47856;SDS011;33618;49.972;8.242;2022-10-16T14:28:00;4.38;;;1.80;;
47856;SDS011;33618;49.972;8.242;2022-10-16T14:30:34;1.90;;;1.80;;
47856;SDS011;33618;49.972;8.242;2022-10-16T14:33:03;3.72;;;2.03;;
47856;SDS011;33618;49.972;8.242;2022-10-16T14:35:33;2.28;;;1.95;;
47856;SDS011;33618;49.972;8.242;2022-10-16T14:38:05;2.78;;;1.75;;
47856;SDS011;33618;49.972;8.242;2022-10-16T14:40:34;3.08;;;2.10;;
47856;SDS011;33618;49.972;8.242;2022-10-16T14:43:03;2.15;;;2.03;;
47856;SDS011;33618;49.972;8.242;2022-10-16T14:45:32;4.20;;;2.28;;
47856;SDS011;33618;49.972;8.242;2022-10-16T14:48:02;3.15;;;2.00;;
47856;SDS011;33618;49.972;8.242;2022-10-16T14:50:44;3.22;;;2.00;;
47856;SDS011;33618;49.972;8.242;2022-10-16T14:53:12;2.55;;;2.20;;
47856;SDS011;33618;49.972;8.242;2022-10-16T14:55:39;2.35;;;2.15;;
47856;SDS011;33618;49.972;8.242;2022-10-16T14:58:10;5.88;;;2.30;;
47856;SDS011;33618;49.972;8.242;2022-10-16T15:00:49;2.38;;;2.00;;
47856;SDS011;33618;49.972;8.242;2022-10-16T15:03:16;2.40;;;2.20;;
47856;SDS011;33618;49.972;8.242;2022-10-16T15:05:43;4.72;;;2.33;;
47856;SDS011;33618;49.972;8.242;2022-10-16T15:08:10;2.38;;;2.17;;
47856;SDS011;33618;49.972;8.242;2022-10-16T15:10:40;3.47;;;2.45;;
47856;SDS011;33618;49.972;8.242;2022-10-16T15:13:11;2.92;;;2.38;;
47856;SDS011;33618;49.972;8.242;2022-10-16T15:15:48;2.50;;;2.20;;
47856;SDS011;33618;49.972;8.242;2022-10-16T15:20:48;4.35;;;2.55;;
47856;SDS011;33618;49.972;8.242;2022-10-16T15:23:17;3.67;;;2.80;;
47856;SDS011;33618;49.972;8.242;2022-10-16T15:28:14;2.95;;;2.75;;
47856;SDS011;33618;49.972;8.242;2022-10-16T15:30:42;8.25;;;2.90;;
47856;SDS011;33618;49.972;8.242;2022-10-16T15:33:12;4.38;;;2.50;;
47856;SDS011;33618;49.972;8.242;2022-10-16T15:35:41;3.60;;;2.90;;
47856;SDS011;33618;49.972;8.242;2022-10-16T15:38:10;2.80;;;2.40;;
47856;SDS011;33618;49.972;8.242;2022-10-16T15:40:39;3.28;;;2.83;;
47856;SDS011;33618;49.972;8.242;2022-10-16T15:43:06;2.83;;;2.63;;
47856;SDS011;33618;49.972;8.242;2022-10-16T15:45:35;4.10;;;2.60;;
47856;SDS011;33618;49.972;8.242;2022-10-16T15:48:02;2.92;;;2.72;;
47856;SDS011;33618;49.972;8.242;2022-10-16T15:50:30;2.90;;;2.70;;
47856;SDS011;33618;49.972;8.242;2022-10-16T15:52:57;4.13;;;2.80;;
47856;SDS011;33618;49.972;8.242;2022-10-16T15:55:24;4.22;;;2.58;;
47856;SDS011;33618;49.972;8.242;2022-10-16T15:57:51;3.05;;;2.75;;
47856;SDS011;33618;49.972;8.242;2022-10-16T16:00:19;3.10;;;2.80;;
47856;SDS011;33618;49.972;8.242;2022-10-16T16:02:52;3.80;;;2.88;;
47856;SDS011;33618;49.972;8.242;2022-10-16T16:05:20;3.60;;;2.95;;
47856;SDS011;33618;49.972;8.242;2022-10-16T16:07:48;4.43;;;3.03;;
47856;SDS011;33618;49.972;8.242;2022-10-16T16:10:15;3.60;;;3.30;;
47856;SDS011;33618;49.972;8.242;2022-10-16T16:12:42;5.32;;;3.10;;
47856;SDS011;33618;49.972;8.242;2022-10-16T16:15:15;3.35;;;3.08;;
47856;SDS011;33618;49.972;8.242;2022-10-16T16:17:42;6.93;;;3.28;;
47856;SDS011;33618;49.972;8.242;2022-10-16T16:20:10;5.80;;;3.40;;
47856;SDS011;33618;49.972;8.242;2022-10-16T16:22:38;4.30;;;3.90;;
47856;SDS011;33618;49.972;8.242;2022-10-16T16:25:04;4.22;;;3.63;;
47856;SDS011;33618;49.972;8.242;2022-10-16T16:27:32;8.70;;;3.70;;
47856;SDS011;33618;49.972;8.242;2022-10-16T16:30:05;4.93;;;3.53;;
47856;SDS011;33618;49.972;8.242;2022-10-16T16:32:34;4.03;;;3.63;;
47856;SDS011;33618;49.972;8.242;2022-10-16T16:35:01;4.95;;;3.75;;
47856;SDS011;33618;49.972;8.242;2022-10-16T16:37:29;3.90;;;3.50;;
47856;SDS011;33618;49.972;8.242;2022-10-16T16:39:56;5.60;;;3.70;;
47856;SDS011;33618;49.972;8.242;2022-10-16T16:42:27;3.72;;;3.40;;
47856;SDS011;33618;49.972;8.242;2022-10-16T16:44:54;4.28;;;3.97;;
47856;SDS011;33618;49.972;8.242;2022-10-16T16:47:21;10.30;;;4.57;;
47856;SDS011;33618;49.972;8.242;2022-10-16T16:49:48;5.05;;;4.65;;
47856;SDS011;33618;49.972;8.242;2022-10-16T16:52:15;6.60;;;4.50;;
47856;SDS011;33618;49.972;8.242;2022-10-16T16:54:42;5.60;;;4.30;;
47856;SDS011;33618;49.972;8.242;2022-10-16T16:57:11;5.55;;;4.35;;
47856;SDS011;33618;49.972;8.242;2022-10-16T16:59:38;4.97;;;4.55;;
47856;SDS011;33618;49.972;8.242;2022-10-16T17:02:05;4.90;;;4.40;;
47856;SDS011;33618;49.972;8.242;2022-10-16T17:04:32;6.72;;;5.43;;
47856;SDS011;33618;49.972;8.242;2022-10-16T17:06:59;6.28;;;5.68;;
47856;SDS011;33618;49.972;8.242;2022-10-16T17:09:26;6.90;;;5.00;;
47856;SDS011;33618;49.972;8.242;2022-10-16T17:11:53;6.57;;;5.10;;
47856;SDS011;33618;49.972;8.242;2022-10-16T17:14:20;5.70;;;5.20;;
47856;SDS011;33618;49.972;8.242;2022-10-16T17:16:48;7.82;;;5.45;;
47856;SDS011;33618;49.972;8.242;2022-10-16T17:19:16;6.00;;;5.50;;
47856;SDS011;33618;49.972;8.242;2022-10-16T17:21:45;8.65;;;5.85;;
47856;SDS011;33618;49.972;8.242;2022-10-16T17:24:15;5.63;;;4.93;;
47856;SDS011;33618;49.972;8.242;2022-10-16T17:26:43;5.63;;;4.65;;
47856;SDS011;33618;49.972;8.242;2022-10-16T17:29:14;5.55;;;5.05;;
47856;SDS011;33618;49.972;8.242;2022-10-16T17:31:43;6.97;;;5.25;;
47856;SDS011;33618;49.972;8.242;2022-10-16T17:34:11;5.97;;;5.35;;
47856;SDS011;33618;49.972;8.242;2022-10-16T17:36:39;6.07;;;5.47;;
47856;SDS011;33618;49.972;8.242;2022-10-16T17:39:10;7.70;;;5.22;;
47856;SDS011;33618;49.972;8.242;2022-10-16T17:41:38;5.57;;;5.03;;
47856;SDS011;33618;49.972;8.242;2022-10-16T17:44:06;6.50;;;5.30;;
47856;SDS011;33618;49.972;8.242;2022-10-16T17:46:33;9.63;;;5.55;;
47856;SDS011;33618;49.972;8.242;2022-10-16T17:49:06;7.72;;;5.55;;
47856;SDS011;33618;49.972;8.242;2022-10-16T17:51:33;8.75;;;6.20;;
47856;SDS011;33618;49.972;8.242;2022-10-16T17:54:00;6.60;;;6.00;;
47856;SDS011;33618;49.972;8.242;2022-10-16T17:56:28;7.93;;;6.57;;
47856;SDS011;33618;49.972;8.242;2022-10-16T17:58:56;7.63;;;6.72;;
47856;SDS011;33618;49.972;8.242;2022-10-16T18:01:33;7.22;;;6.53;;
47856;SDS011;33618;49.972;8.242;2022-10-16T18:04:03;8.50;;;6.60;;
47856;SDS011;33618;49.972;8.242;2022-10-16T18:06:32;7.15;;;6.20;;
47856;SDS011;33618;49.972;8.242;2022-10-16T18:09:00;8.65;;;7.32;;